sensor_id;sensor_type;location;lat;lon;timestamp;pressure;altitude;pressure_sealevel;temperature;humidity
41078;BME280;26823;42.662;23.352;2024-01-15T00:00:38;155280.94;;;-3.23;82.19
41078;BME280;26823;42.662;23.352;2024-01-15T00:03:04;155271.59;;;-3.26;82.60
41078;BME280;26823;42.662;23.352;2024-01-15T00:05:29;155263.56;;;-3.30;82.79
41078;BME280;26823;42.662;23.352;2024-01-15T00:07:55;155254.22;;;-3.33;82.81
41078;BME280;26823;42.662;23.352;2024-01-15T00:10:20;155256.91;;;-3.32;82.63
41078;BME280;26823;42.662;23.352;2024-01-15T00:12:46;155259.56;;;-3.31;82.56
41078;BME280;26823;42.662;23.352;2024-01-15T00:15:11;155262.25;;;-3.30;82.26
41078;BME280;26823;42.662;23.352;2024-01-15T00:17:37;155243.56;;;-3.37;82.20
41078;BME280;26823;42.662;23.352;2024-01-15T00:20:02;155259.56;;;-3.31;82.80
41078;BME280;26823;42.662;23.352;2024-01-15T00:22:29;155166.28;;;-3.67;82.71
41078;BME280;26823;42.662;23.352;2024-01-15T00:24:54;155199.59;;;-3.54;83.55
41078;BME280;26823;42.662;23.352;2024-01-15T00:27:20;155234.22;;;-3.41;83.53
41078;BME280;26823;42.662;23.352;2024-01-15T00:29:45;155222.25;;;-3.46;83.72
41078;BME280;26823;42.662;23.352;2024-01-15T00:32:11;155220.91;;;-3.46;83.45
41078;BME280;26823;42.662;23.352;2024-01-15T00:34:36;155208.94;;;-3.51;83.44
41078;BME280;26823;42.662;23.352;2024-01-15T00:37:02;155204.88;;;-3.52;83.94
41078;BME280;26823;42.662;23.352;2024-01-15T00:39:28;155215.59;;;-3.48;83.47
41078;BME280;26823;42.662;23.352;2024-01-15T00:41:53;155154.25;;;-3.72;83.57
41078;BME280;26823;42.662;23.352;2024-01-15T00:44:19;155211.56;;;-3.50;83.33
41078;BME280;26823;42.662;23.352;2024-01-15T00:46:44;155214.22;;;-3.49;84.04
41078;BME280;26823;42.662;23.352;2024-01-15T00:49:12;155210.25;;;-3.50;84.12
41078;BME280;26823;42.662;23.352;2024-01-15T00:51:37;155211.56;;;-3.50;83.84
41078;BME280;26823;42.662;23.352;2024-01-15T00:54:02;155192.94;;;-3.57;84.64
41078;BME280;26823;42.662;23.352;2024-01-15T00:56:28;155195.59;;;-3.56;84.06
41078;BME280;26823;42.662;23.352;2024-01-15T00:58:53;155202.25;;;-3.53;84.21
41078;BME280;26823;42.662;23.352;2024-01-15T01:01:19;155122.25;;;-3.84;84.04
41078;BME280;26823;42.662;23.352;2024-01-15T01:03:44;155211.56;;;-3.50;84.03
41078;BME280;26823;42.662;23.352;2024-01-15T01:06:09;155216.91;;;-3.48;83.95
41078;BME280;26823;42.662;23.352;2024-01-15T01:08:35;155204.88;;;-3.52;83.68
41078;BME280;26823;42.662;23.352;2024-01-15T01:11:00;155206.25;;;-3.52;83.70
41078;BME280;26823;42.662;23.352;2024-01-15T01:13:26;155187.56;;;-3.59;83.61
41078;BME280;26823;42.662;23.352;2024-01-15T01:15:51;155187.56;;;-3.59;83.40
41078;BME280;26823;42.662;23.352;2024-01-15T01:18:17;155168.91;;;-3.66;83.66
41078;BME280;26823;42.662;23.352;2024-01-15T01:20:42;155166.28;;;-3.67;83.62
41078;BME280;26823;42.662;23.352;2024-01-15T01:23:07;155143.59;;;-3.76;83.06
41078;BME280;26823;42.662;23.352;2024-01-15T01:25:33;155144.91;;;-3.75;83.50
41078;BME280;26823;42.662;23.352;2024-01-15T01:27:58;155142.25;;;-3.77;84.04
41078;BME280;26823;42.662;23.352;2024-01-15T01:30:24;155158.25;;;-3.70;83.95
41078;BME280;26823;42.662;23.352;2024-01-15T01:32:49;155158.25;;;-3.70;83.85
41078;BME280;26823;42.662;23.352;2024-01-15T01:35:15;155150.28;;;-3.73;84.42
41078;BME280;26823;42.662;23.352;2024-01-15T01:37:40;155111.59;;;-3.88;84.98
41078;BME280;26823;42.662;23.352;2024-01-15T01:40:06;155124.94;;;-3.83;85.09
41078;BME280;26823;42.662;23.352;2024-01-15T01:42:31;155127.59;;;-3.82;84.30
41078;BME280;26823;42.662;23.352;2024-01-15T01:44:57;155110.25;;;-3.89;84.80
41078;BME280;26823;42.662;23.352;2024-01-15T01:47:23;155068.94;;;-4.05;84.21
41078;BME280;26823;42.662;23.352;2024-01-15T01:49:48;155107.63;;;-3.90;84.47
41078;BME280;26823;42.662;23.352;2024-01-15T01:52:14;155094.28;;;-3.95;84.76
41078;BME280;26823;42.662;23.352;2024-01-15T01:54:40;155123.63;;;-3.84;84.71
41078;BME280;26823;42.662;23.352;2024-01-15T01:57:05;155059.63;;;-4.08;84.58
41078;BME280;26823;42.662;23.352;2024-01-15T01:59:32;155108.94;;;-3.89;84.35
41078;BME280;26823;42.662;23.352;2024-01-15T02:02:00;155059.63;;;-4.08;84.57
41078;BME280;26823;42.662;23.352;2024-01-15T02:04:27;155091.63;;;-3.96;84.55
41078;BME280;26823;42.662;23.352;2024-01-15T02:06:53;155112.91;;;-3.88;84.65
41078;BME280;26823;42.662;23.352;2024-01-15T02:09:18;155091.63;;;-3.96;84.94
41078;BME280;26823;42.662;23.352;2024-01-15T02:11:49;155083.59;;;-3.99;84.63
41078;BME280;26823;42.662;23.352;2024-01-15T02:14:14;155090.25;;;-3.97;85.15
41078;BME280;26823;42.662;23.352;2024-01-15T02:16:40;155074.25;;;-4.03;85.13
41078;BME280;26823;42.662;23.352;2024-01-15T02:19:06;155058.31;;;-4.09;85.08
41078;BME280;26823;42.662;23.352;2024-01-15T02:21:32;155088.94;;;-3.97;85.01
41078;BME280;26823;42.662;23.352;2024-01-15T02:23:58;155080.91;;;-4.00;85.57
41078;BME280;26823;42.662;23.352;2024-01-15T02:26:23;155022.31;;;-4.23;85.57
41078;BME280;26823;42.662;23.352;2024-01-15T02:28:50;154988.97;;;-4.36;85.29
41078;BME280;26823;42.662;23.352;2024-01-15T02:31:16;155088.94;;;-3.97;85.85
41078;BME280;26823;42.662;23.352;2024-01-15T02:33:42;155072.94;;;-4.03;85.90
41078;BME280;26823;42.662;23.352;2024-01-15T02:36:08;155034.28;;;-4.18;85.96
41078;BME280;26823;42.662;23.352;2024-01-15T02:38:33;155063.59;;;-4.07;85.21
41078;BME280;26823;42.662;23.352;2024-01-15T02:40:59;155058.31;;;-4.09;85.44
41078;BME280;26823;42.662;23.352;2024-01-15T02:43:24;154993.00;;;-4.34;85.70
41078;BME280;26823;42.662;23.352;2024-01-15T02:45:50;155102.25;;;-3.92;85.11
41078;BME280;26823;42.662;23.352;2024-01-15T02:48:15;155111.59;;;-3.88;85.19
41078;BME280;26823;42.662;23.352;2024-01-15T02:50:40;155124.94;;;-3.83;85.08
41078;BME280;26823;42.662;23.352;2024-01-15T02:53:06;155116.91;;;-3.86;85.15
41078;BME280;26823;42.662;23.352;2024-01-15T02:55:31;155138.25;;;-3.78;84.66
41078;BME280;26823;42.662;23.352;2024-01-15T02:57:57;155150.28;;;-3.73;84.51
41078;BME280;26823;42.662;23.352;2024-01-15T03:00:22;155150.28;;;-3.73;84.15
41078;BME280;26823;42.662;23.352;2024-01-15T03:02:50;155144.91;;;-3.75;84.43
41078;BME280;26823;42.662;23.352;2024-01-15T03:05:16;155147.59;;;-3.74;84.09
41078;BME280;26823;42.662;23.352;2024-01-15T03:07:41;155146.22;;;-3.75;84.26
41078;BME280;26823;42.662;23.352;2024-01-15T03:10:07;155111.59;;;-3.88;84.00
41078;BME280;26823;42.662;23.352;2024-01-15T03:12:33;155132.91;;;-3.80;84.49
41078;BME280;26823;42.662;23.352;2024-01-15T03:14:58;155056.94;;;-4.10;84.07
41078;BME280;26823;42.662;23.352;2024-01-15T03:17:24;155135.56;;;-3.79;84.17
41078;BME280;26823;42.662;23.352;2024-01-15T03:19:49;155112.91;;;-3.88;84.56
41078;BME280;26823;42.662;23.352;2024-01-15T03:22:15;155108.94;;;-3.89;84.10
41078;BME280;26823;42.662;23.352;2024-01-15T03:24:41;155154.25;;;-3.72;84.05
41078;BME280;26823;42.662;23.352;2024-01-15T03:27:06;155172.94;;;-3.65;83.89
41078;BME280;26823;42.662;23.352;2024-01-15T03:29:33;155171.56;;;-3.65;84.34
41078;BME280;26823;42.662;23.352;2024-01-15T03:31:58;155174.25;;;-3.64;84.14
41078;BME280;26823;42.662;23.352;2024-01-15T03:34:23;155163.59;;;-3.68;84.34
41078;BME280;26823;42.662;23.352;2024-01-15T03:36:49;155180.91;;;-3.62;83.96
41078;BME280;26823;42.662;23.352;2024-01-15T03:39:14;155122.25;;;-3.84;84.28
41078;BME280;26823;42.662;23.352;2024-01-15T03:41:40;155168.91;;;-3.66;84.29
41078;BME280;26823;42.662;23.352;2024-01-15T03:44:05;155091.63;;;-3.96;83.24
41078;BME280;26823;42.662;23.352;2024-01-15T03:46:31;155162.22;;;-3.69;83.25
41078;BME280;26823;42.662;23.352;2024-01-15T03:48:56;155154.25;;;-3.72;83.18
41078;BME280;26823;42.662;23.352;2024-01-15T03:51:23;155155.56;;;-3.71;83.18
41078;BME280;26823;42.662;23.352;2024-01-15T03:53:48;155171.56;;;-3.65;83.51
41078;BME280;26823;42.662;23.352;2024-01-15T03:56:13;155171.56;;;-3.65;83.47
41078;BME280;26823;42.662;23.352;2024-01-15T03:58:39;155178.22;;;-3.63;83.17
41078;BME280;26823;42.662;23.352;2024-01-15T04:01:08;155160.91;;;-3.69;83.37
41078;BME280;26823;42.662;23.352;2024-01-15T04:03:34;155164.91;;;-3.68;83.87
41078;BME280;26823;42.662;23.352;2024-01-15T04:05:59;155171.56;;;-3.65;83.68
41078;BME280;26823;42.662;23.352;2024-01-15T04:08:25;155180.91;;;-3.62;83.79
41078;BME280;26823;42.662;23.352;2024-01-15T04:10:50;155186.25;;;-3.59;83.86
41078;BME280;26823;42.662;23.352;2024-01-15T04:13:15;155186.25;;;-3.59;83.93
41078;BME280;26823;42.662;23.352;2024-01-15T04:15:41;155182.22;;;-3.61;83.68
41078;BME280;26823;42.662;23.352;2024-01-15T04:18:06;155202.25;;;-3.53;83.82
41078;BME280;26823;42.662;23.352;2024-01-15T04:20:32;155183.59;;;-3.61;83.97
41078;BME280;26823;42.662;23.352;2024-01-15T04:22:57;155175.56;;;-3.64;83.93
41078;BME280;26823;42.662;23.352;2024-01-15T04:25:23;155186.25;;;-3.59;84.46
41078;BME280;26823;42.662;23.352;2024-01-15T04:27:48;155179.59;;;-3.62;84.20
41078;BME280;26823;42.662;23.352;2024-01-15T04:30:13;155170.25;;;-3.66;84.73
41078;BME280;26823;42.662;23.352;2024-01-15T04:32:39;155156.94;;;-3.71;84.50
41078;BME280;26823;42.662;23.352;2024-01-15T04:35:04;155131.59;;;-3.81;84.98
41078;BME280;26823;42.662;23.352;2024-01-15T04:37:30;155179.59;;;-3.62;84.95
41078;BME280;26823;42.662;23.352;2024-01-15T04:39:55;155188.88;;;-3.58;84.59
41078;BME280;26823;42.662;23.352;2024-01-15T04:42:22;155162.22;;;-3.69;83.99
41078;BME280;26823;42.662;23.352;2024-01-15T04:44:48;155138.25;;;-3.78;84.30
41078;BME280;26823;42.662;23.352;2024-01-15T04:47:13;155130.28;;;-3.81;85.11
41078;BME280;26823;42.662;23.352;2024-01-15T04:49:39;155128.91;;;-3.82;85.27
41078;BME280;26823;42.662;23.352;2024-01-15T04:52:04;155122.25;;;-3.84;85.02
41078;BME280;26823;42.662;23.352;2024-01-15T04:54:30;155119.56;;;-3.85;85.06
41078;BME280;26823;42.662;23.352;2024-01-15T04:56:55;155080.91;;;-4.00;85.26
41078;BME280;26823;42.662;23.352;2024-01-15T04:59:21;155107.63;;;-3.90;85.43
41078;BME280;26823;42.662;23.352;2024-01-15T05:01:46;155102.25;;;-3.92;85.61
41078;BME280;26823;42.662;23.352;2024-01-15T05:04:12;155096.91;;;-3.94;85.67
41078;BME280;26823;42.662;23.352;2024-01-15T05:06:38;155094.28;;;-3.95;85.78
41078;BME280;26823;42.662;23.352;2024-01-15T05:09:03;155044.94;;;-4.14;86.15
41078;BME280;26823;42.662;23.352;2024-01-15T05:11:29;155087.63;;;-3.98;86.27
41078;BME280;26823;42.662;23.352;2024-01-15T05:13:55;155112.91;;;-3.88;86.26
41078;BME280;26823;42.662;23.352;2024-01-15T05:16:20;155139.56;;;-3.78;86.06
41078;BME280;26823;42.662;23.352;2024-01-15T05:18:46;155115.59;;;-3.87;85.66
41078;BME280;26823;42.662;23.352;2024-01-15T05:21:11;155131.59;;;-3.81;86.00
41078;BME280;26823;42.662;23.352;2024-01-15T05:23:37;155107.63;;;-3.90;85.60
41078;BME280;26823;42.662;23.352;2024-01-15T05:26:03;155096.91;;;-3.94;85.92
41078;BME280;26823;42.662;23.352;2024-01-15T05:28:28;155092.91;;;-3.96;86.35
41078;BME280;26823;42.662;23.352;2024-01-15T05:30:54;155047.59;;;-4.13;86.85
41078;BME280;26823;42.662;23.352;2024-01-15T05:33:21;155038.28;;;-4.17;87.44
41078;BME280;26823;42.662;23.352;2024-01-15T05:35:47;155046.28;;;-4.14;87.83
41078;BME280;26823;42.662;23.352;2024-01-15T05:38:12;155046.28;;;-4.14;87.86
41078;BME280;26823;42.662;23.352;2024-01-15T05:40:38;155043.63;;;-4.15;87.62
41078;BME280;26823;42.662;23.352;2024-01-15T05:43:03;155042.31;;;-4.15;88.11
41078;BME280;26823;42.662;23.352;2024-01-15T05:45:30;154970.34;;;-4.43;88.00
41078;BME280;26823;42.662;23.352;2024-01-15T05:47:55;155028.97;;;-4.20;88.20
41078;BME280;26823;42.662;23.352;2024-01-15T05:50:21;155030.28;;;-4.20;88.43
41078;BME280;26823;42.662;23.352;2024-01-15T05:52:47;154973.03;;;-4.42;88.60
41078;BME280;26823;42.662;23.352;2024-01-15T05:55:13;155048.97;;;-4.13;88.56
41078;BME280;26823;42.662;23.352;2024-01-15T05:57:38;155058.31;;;-4.09;89.01
41078;BME280;26823;42.662;23.352;2024-01-15T06:00:05;155083.59;;;-3.99;88.50
41078;BME280;26823;42.662;23.352;2024-01-15T06:02:30;155068.94;;;-4.05;88.54
41078;BME280;26823;42.662;23.352;2024-01-15T06:04:55;155098.28;;;-3.94;88.39
41078;BME280;26823;42.662;23.352;2024-01-15T06:07:22;155114.28;;;-3.87;88.29
41078;BME280;26823;42.662;23.352;2024-01-15T06:09:48;155120.94;;;-3.85;88.26
41078;BME280;26823;42.662;23.352;2024-01-15T06:12:13;155138.25;;;-3.78;87.99
41078;BME280;26823;42.662;23.352;2024-01-15T06:14:38;155148.91;;;-3.74;87.16
41078;BME280;26823;42.662;23.352;2024-01-15T06:17:04;155167.59;;;-3.67;87.50
41078;BME280;26823;42.662;23.352;2024-01-15T06:19:29;155135.56;;;-3.79;86.92
41078;BME280;26823;42.662;23.352;2024-01-15T06:21:55;155170.25;;;-3.66;87.38
41078;BME280;26823;42.662;23.352;2024-01-15T06:24:20;155034.28;;;-4.18;86.85
41078;BME280;26823;42.662;23.352;2024-01-15T06:26:48;155207.56;;;-3.51;86.76
41078;BME280;26823;42.662;23.352;2024-01-15T06:29:14;155218.22;;;-3.47;86.71
41078;BME280;26823;42.662;23.352;2024-01-15T06:31:39;155240.91;;;-3.38;87.17
41078;BME280;26823;42.662;23.352;2024-01-15T06:34:05;155251.59;;;-3.34;87.18
41078;BME280;26823;42.662;23.352;2024-01-15T06:36:30;155244.94;;;-3.37;87.70
41078;BME280;26823;42.662;23.352;2024-01-15T06:38:55;155200.91;;;-3.54;87.74
41078;BME280;26823;42.662;23.352;2024-01-15T06:41:21;155252.91;;;-3.34;86.96
41078;BME280;26823;42.662;23.352;2024-01-15T06:43:47;155275.59;;;-3.25;87.26
41078;BME280;26823;42.662;23.352;2024-01-15T06:46:12;155258.25;;;-3.32;87.46
41078;BME280;26823;42.662;23.352;2024-01-15T06:48:38;155334.28;;;-3.02;86.93
41078;BME280;26823;42.662;23.352;2024-01-15T06:51:03;155339.56;;;-3.00;87.05
41078;BME280;26823;42.662;23.352;2024-01-15T06:53:29;155376.97;;;-2.86;86.60
41078;BME280;26823;42.662;23.352;2024-01-15T06:55:54;155390.28;;;-2.81;86.14
41078;BME280;26823;42.662;23.352;2024-01-15T06:58:20;155412.97;;;-2.72;85.38
41078;BME280;26823;42.662;23.352;2024-01-15T07:00:45;155455.66;;;-2.55;85.07
41078;BME280;26823;42.662;23.352;2024-01-15T07:03:10;155467.69;;;-2.51;84.94
41078;BME280;26823;42.662;23.352;2024-01-15T07:05:36;155485.03;;;-2.44;84.63
41078;BME280;26823;42.662;23.352;2024-01-15T07:08:08;155511.72;;;-2.34;84.65
41078;BME280;26823;42.662;23.352;2024-01-15T07:10:33;155526.41;;;-2.28;84.54
41078;BME280;26823;42.662;23.352;2024-01-15T07:12:58;155557.09;;;-2.16;83.91
41078;BME280;26823;42.662;23.352;2024-01-15T07:15:24;155553.09;;;-2.18;83.83
41078;BME280;26823;42.662;23.352;2024-01-15T07:17:49;155555.75;;;-2.17;83.96
41078;BME280;26823;42.662;23.352;2024-01-15T07:20:15;155577.13;;;-2.08;84.10
41078;BME280;26823;42.662;23.352;2024-01-15T07:22:41;155590.47;;;-2.03;84.04
41078;BME280;26823;42.662;23.352;2024-01-15T07:25:06;155597.13;;;-2.01;82.88
41078;BME280;26823;42.662;23.352;2024-01-15T07:27:32;155610.47;;;-1.95;82.18
41078;BME280;26823;42.662;23.352;2024-01-15T07:29:57;155585.09;;;-2.05;82.29
41078;BME280;26823;42.662;23.352;2024-01-15T07:32:23;155587.78;;;-2.04;82.94
41078;BME280;26823;42.662;23.352;2024-01-15T07:34:49;155618.53;;;-1.92;83.12
41078;BME280;26823;42.662;23.352;2024-01-15T07:37:15;155537.09;;;-2.24;82.55
41078;BME280;26823;42.662;23.352;2024-01-15T07:39:40;155615.84;;;-1.93;82.43
41078;BME280;26823;42.662;23.352;2024-01-15T07:42:05;155657.19;;;-1.77;83.42
41078;BME280;26823;42.662;23.352;2024-01-15T07:44:31;155627.81;;;-1.89;83.12
41078;BME280;26823;42.662;23.352;2024-01-15T07:46:56;155678.59;;;-1.69;82.74
41078;BME280;26823;42.662;23.352;2024-01-15T07:49:22;155697.28;;;-1.62;82.42
41078;BME280;26823;42.662;23.352;2024-01-15T07:51:49;155623.81;;;-1.90;81.36
41078;BME280;26823;42.662;23.352;2024-01-15T07:54:14;155754.69;;;-1.40;79.64
41078;BME280;26823;42.662;23.352;2024-01-15T07:57:00;155746.69;;;-1.43;78.05
41078;BME280;26823;42.662;23.352;2024-01-15T07:59:26;155729.31;;;-1.50;78.00
41078;BME280;26823;42.662;23.352;2024-01-15T08:01:52;155677.28;;;-1.70;78.45
41078;BME280;26823;42.662;23.352;2024-01-15T08:04:19;155597.13;;;-2.01;80.23
41078;BME280;26823;42.662;23.352;2024-01-15T08:06:44;155687.94;;;-1.66;80.52
41078;BME280;26823;42.662;23.352;2024-01-15T08:09:10;155734.66;;;-1.48;79.96
41078;BME280;26823;42.662;23.352;2024-01-15T08:11:36;155709.28;;;-1.57;79.17
41078;BME280;26823;42.662;23.352;2024-01-15T08:14:04;155678.59;;;-1.69;79.92
41078;BME280;26823;42.662;23.352;2024-01-15T08:16:29;155753.38;;;-1.40;80.04
41078;BME280;26823;42.662;23.352;2024-01-15T08:18:55;155742.66;;;-1.44;79.77
41078;BME280;26823;42.662;23.352;2024-01-15T08:21:20;155789.44;;;-1.26;79.30
41078;BME280;26823;42.662;23.352;2024-01-15T08:23:45;155832.19;;;-1.10;79.04
41078;BME280;26823;42.662;23.352;2024-01-15T08:26:11;155872.25;;;-0.94;78.84
41078;BME280;26823;42.662;23.352;2024-01-15T08:28:36;155937.72;;;-0.69;78.16
41078;BME280;26823;42.662;23.352;2024-01-15T08:31:02;155987.19;;;-0.50;76.89
41078;BME280;26823;42.662;23.352;2024-01-15T08:33:28;156060.66;;;-0.22;76.39
41078;BME280;26823;42.662;23.352;2024-01-15T08:35:54;156103.44;;;-0.05;74.64
41078;BME280;26823;42.662;23.352;2024-01-15T08:38:19;156144.91;;;0.11;74.66
41078;BME280;26823;42.662;23.352;2024-01-15T08:40:45;156162.28;;;0.18;74.05
41078;BME280;26823;42.662;23.352;2024-01-15T08:43:10;156238.56;;;0.47;73.25
41078;BME280;26823;42.662;23.352;2024-01-15T08:45:36;156318.81;;;0.78;72.65
41078;BME280;26823;42.662;23.352;2024-01-15T08:48:01;156440.56;;;1.25;71.52
41078;BME280;26823;42.662;23.352;2024-01-15T08:50:27;156491.44;;;1.44;69.82
41078;BME280;26823;42.662;23.352;2024-01-15T08:52:52;156558.38;;;1.70;68.11
41078;BME280;26823;42.662;23.352;2024-01-15T08:55:18;156601.22;;;1.87;67.03
41078;BME280;26823;42.662;23.352;2024-01-15T08:57:43;156669.53;;;2.13;65.58
41078;BME280;26823;42.662;23.352;2024-01-15T09:00:09;156744.50;;;2.42;65.80
41078;BME280;26823;42.662;23.352;2024-01-15T09:02:35;156870.47;;;2.90;64.01
41078;BME280;26823;42.662;23.352;2024-01-15T09:05:01;156969.63;;;3.29;61.18
41078;BME280;26823;42.662;23.352;2024-01-15T09:07:27;156960.25;;;3.25;58.21
41078;BME280;26823;42.662;23.352;2024-01-15T09:09:53;157164.03;;;4.03;56.08
41078;BME280;26823;42.662;23.352;2024-01-15T09:12:19;157197.56;;;4.16;54.61
41078;BME280;26823;42.662;23.352;2024-01-15T09:14:46;157147.94;;;3.97;54.56
41078;BME280;26823;42.662;23.352;2024-01-15T09:17:12;157123.81;;;3.88;54.30
41078;BME280;26823;42.662;23.352;2024-01-15T09:19:37;157088.94;;;3.74;54.05
41078;BME280;26823;42.662;23.352;2024-01-15T09:22:05;157050.03;;;3.59;55.43
41078;BME280;26823;42.662;23.352;2024-01-15T09:24:30;156993.75;;;3.38;56.96
41078;BME280;26823;42.662;23.352;2024-01-15T09:26:56;156977.66;;;3.32;56.89
41078;BME280;26823;42.662;23.352;2024-01-15T09:29:21;156950.84;;;3.21;57.62
41078;BME280;26823;42.662;23.352;2024-01-15T09:31:49;156930.75;;;3.14;57.61
41078;BME280;26823;42.662;23.352;2024-01-15T09:34:15;156930.75;;;3.14;58.05
41078;BME280;26823;42.662;23.352;2024-01-15T09:36:41;156854.38;;;2.84;58.71
41078;BME280;26823;42.662;23.352;2024-01-15T09:39:10;156893.25;;;2.99;58.91
41078;BME280;26823;42.662;23.352;2024-01-15T09:41:39;156887.88;;;2.97;59.21
41078;BME280;26823;42.662;23.352;2024-01-15T09:44:05;156878.47;;;2.93;58.58
41078;BME280;26823;42.662;23.352;2024-01-15T09:46:32;156842.31;;;2.80;57.35
41078;BME280;26823;42.662;23.352;2024-01-15T09:48:58;156794.09;;;2.61;57.71
41078;BME280;26823;42.662;23.352;2024-01-15T09:51:24;156759.25;;;2.48;58.06
41078;BME280;26823;42.662;23.352;2024-01-15T09:53:54;156547.66;;;1.66;60.16
41078;BME280;26823;42.662;23.352;2024-01-15T09:56:20;156542.28;;;1.64;60.57
41078;BME280;26823;42.662;23.352;2024-01-15T09:58:46;156475.38;;;1.38;61.39
41078;BME280;26823;42.662;23.352;2024-01-15T10:01:13;156507.47;;;1.51;61.58
41078;BME280;26823;42.662;23.352;2024-01-15T10:03:40;156519.53;;;1.55;62.15
41078;BME280;26823;42.662;23.352;2024-01-15T10:06:07;156432.56;;;1.22;61.28
41078;BME280;26823;42.662;23.352;2024-01-15T10:08:36;156447.25;;;1.27;61.71
41078;BME280;26823;42.662;23.352;2024-01-15T10:11:02;156424.50;;;1.19;62.95
41078;BME280;26823;42.662;23.352;2024-01-15T10:13:31;156404.44;;;1.11;62.85
41078;BME280;26823;42.662;23.352;2024-01-15T10:15:58;156425.88;;;1.19;62.87
41078;BME280;26823;42.662;23.352;2024-01-15T10:18:28;156421.81;;;1.18;62.75
41078;BME280;26823;42.662;23.352;2024-01-15T10:20:53;156370.97;;;0.98;63.36
41078;BME280;26823;42.662;23.352;2024-01-15T10:23:19;156297.38;;;0.70;64.10
41078;BME280;26823;42.662;23.352;2024-01-15T10:25:44;156324.16;;;0.80;64.58
41078;BME280;26823;42.662;23.352;2024-01-15T10:28:10;156332.19;;;0.83;65.03
41078;BME280;26823;42.662;23.352;2024-01-15T10:30:35;156313.44;;;0.76;64.62
41078;BME280;26823;42.662;23.352;2024-01-15T10:33:03;156381.69;;;1.02;63.93
41078;BME280;26823;42.662;23.352;2024-01-15T10:35:35;156368.31;;;0.97;63.88
41078;BME280;26823;42.662;23.352;2024-01-15T10:38:01;156370.97;;;0.98;65.34
41078;BME280;26823;42.662;23.352;2024-01-15T10:40:28;156341.53;;;0.87;64.01
41078;BME280;26823;42.662;23.352;2024-01-15T10:42:54;156397.75;;;1.08;65.90
41078;BME280;26823;42.662;23.352;2024-01-15T10:45:19;156370.97;;;0.98;64.42
41078;BME280;26823;42.662;23.352;2024-01-15T10:47:45;156404.44;;;1.11;64.11
41078;BME280;26823;42.662;23.352;2024-01-15T10:50:11;156464.63;;;1.34;62.87
41078;BME280;26823;42.662;23.352;2024-01-15T10:52:38;156494.09;;;1.45;63.67
41078;BME280;26823;42.662;23.352;2024-01-15T10:55:07;156561.06;;;1.71;62.81
41078;BME280;26823;42.662;23.352;2024-01-15T10:57:34;156543.63;;;1.65;62.42
41078;BME280;26823;42.662;23.352;2024-01-15T11:00:00;156581.13;;;1.79;61.48
41078;BME280;26823;42.662;23.352;2024-01-15T11:02:29;156574.44;;;1.76;62.60
41078;BME280;26823;42.662;23.352;2024-01-15T11:04:54;156619.97;;;1.94;62.76
41078;BME280;26823;42.662;23.352;2024-01-15T11:07:21;156601.22;;;1.87;62.52
41078;BME280;26823;42.662;23.352;2024-01-15T11:09:49;156567.75;;;1.74;63.48
41078;BME280;26823;42.662;23.352;2024-01-15T11:12:16;156570.44;;;1.75;63.59
41078;BME280;26823;42.662;23.352;2024-01-15T11:14:46;156595.84;;;1.85;62.91
41078;BME280;26823;42.662;23.352;2024-01-15T11:17:12;156650.75;;;2.06;62.19
41078;BME280;26823;42.662;23.352;2024-01-15T11:22:11;157000.44;;;3.40;59.16
41078;BME280;26823;42.662;23.352;2024-01-15T11:25:17;157094.31;;;3.77;55.89
41078;BME280;26823;42.662;23.352;2024-01-15T11:27:50;157106.34;;;3.81;55.87
41078;BME280;26823;42.662;23.352;2024-01-15T11:30:17;157240.50;;;4.33;54.97
41078;BME280;26823;42.662;23.352;2024-01-15T11:32:45;157243.19;;;4.34;53.63
41078;BME280;26823;42.662;23.352;2024-01-15T11:35:13;157202.94;;;4.18;53.80
41078;BME280;26823;42.662;23.352;2024-01-15T11:42:45;157109.03;;;3.82;53.02
41078;BME280;26823;42.662;23.352;2024-01-15T11:45:11;157162.72;;;4.03;53.38
41078;BME280;26823;42.662;23.352;2024-01-15T11:50:03;157229.78;;;4.29;53.10
41078;BME280;26823;42.662;23.352;2024-01-15T11:52:38;157188.16;;;4.13;53.47
41078;BME280;26823;42.662;23.352;2024-01-15T11:57:41;157233.78;;;4.30;53.54
41078;BME280;26823;42.662;23.352;2024-01-15T12:00:10;157252.59;;;4.37;52.79
41078;BME280;26823;42.662;23.352;2024-01-15T12:02:37;157237.81;;;4.32;52.86
41078;BME280;26823;42.662;23.352;2024-01-15T12:05:02;157146.63;;;3.97;54.35
41078;BME280;26823;42.662;23.352;2024-01-15T12:07:28;157151.97;;;3.99;54.42
41078;BME280;26823;42.662;23.352;2024-01-15T12:09:54;157117.13;;;3.85;56.92
41078;BME280;26823;42.662;23.352;2024-01-15T12:15:09;157233.78;;;4.30;54.91
41078;BME280;26823;42.662;23.352;2024-01-15T12:17:35;157338.44;;;4.70;53.91
41078;BME280;26823;42.662;23.352;2024-01-15T12:20:03;157455.19;;;5.15;52.20
41078;BME280;26823;42.662;23.352;2024-01-15T12:22:29;157491.44;;;5.29;51.48
41078;BME280;26823;42.662;23.352;2024-01-15T12:24:55;157520.97;;;5.41;51.13
41078;BME280;26823;42.662;23.352;2024-01-15T12:27:21;157471.31;;;5.21;50.46
41078;BME280;26823;42.662;23.352;2024-01-15T12:29:46;157347.84;;;4.74;50.98
41078;BME280;26823;42.662;23.352;2024-01-15T12:32:12;157392.13;;;4.91;52.27
41078;BME280;26823;42.662;23.352;2024-01-15T12:34:38;157377.38;;;4.85;52.63
41078;BME280;26823;42.662;23.352;2024-01-15T12:37:03;157381.38;;;4.87;52.78
41078;BME280;26823;42.662;23.352;2024-01-15T12:39:29;157401.50;;;4.95;52.94
41078;BME280;26823;42.662;23.352;2024-01-15T12:41:54;157385.41;;;4.88;52.69
41078;BME280;26823;42.662;23.352;2024-01-15T12:44:20;157400.19;;;4.94;52.61
41078;BME280;26823;42.662;23.352;2024-01-15T12:46:46;157362.59;;;4.80;52.55
41078;BME280;26823;42.662;23.352;2024-01-15T12:49:13;157315.63;;;4.62;52.58
41078;BME280;26823;42.662;23.352;2024-01-15T12:51:38;157335.75;;;4.69;52.64